createdAt,value
2022-12-05T00:02:08.671Z,1.14
2022-12-05T00:04:37.271Z,1.12
2022-12-05T00:07:05.811Z,1.15
2022-12-05T00:09:34.095Z,1.17
2022-12-05T00:12:02.858Z,1.17
2022-12-05T00:14:32.660Z,1.19
2022-12-05T00:17:01.086Z,1.18
2022-12-05T00:19:29.518Z,1.13
2022-12-05T00:21:58.122Z,1.16
2022-12-05T00:24:26.814Z,1.16
2022-12-05T00:26:55.199Z,1.17
2022-12-05T00:29:23.575Z,1.16
2022-12-05T00:31:53.377Z,1.10
2022-12-05T00:34:21.803Z,1.11
2022-12-05T00:36:53.261Z,1.09
2022-12-05T00:39:21.865Z,1.08
2022-12-05T00:41:50.226Z,1.09
2022-12-05T00:44:18.508Z,1.08
2022-12-05T00:46:46.863Z,1.13
2022-12-05T00:49:16.578Z,1.09
2022-12-05T00:51:45.164Z,1.11
2022-12-05T00:54:15.101Z,1.13
2022-12-05T00:56:43.526Z,1.14
2022-12-05T00:59:15.637Z,1.15
2022-12-05T01:01:44.208Z,1.15
2022-12-05T01:04:13.968Z,1.17
2022-12-05T01:06:43.795Z,1.19
2022-12-05T01:09:13.216Z,1.19
2022-12-05T01:11:41.896Z,1.21
2022-12-05T01:14:10.435Z,1.19
2022-12-05T01:16:39.868Z,1.19
2022-12-05T01:19:12.594Z,1.20
2022-12-05T01:21:40.931Z,1.21
2022-12-05T01:24:10.908Z,1.23
2022-12-05T01:26:39.219Z,1.18
2022-12-05T01:29:07.564Z,1.20
2022-12-05T01:31:37.104Z,1.21
2022-12-05T01:34:07.846Z,1.22
2022-12-05T01:36:36.137Z,1.24
2022-12-05T01:39:04.545Z,1.25
2022-12-05T01:41:35.649Z,1.26
2022-12-05T01:44:06.725Z,1.24
2022-12-05T01:46:36.535Z,1.25
2022-12-05T01:49:06.729Z,1.24
2022-12-05T01:51:35.258Z,1.24
2022-12-05T01:54:03.641Z,1.23
2022-12-05T01:56:34.063Z,1.23
2022-12-05T01:59:06.856Z,1.22
2022-12-05T02:01:35.761Z,1.22
2022-12-05T02:04:04.211Z,1.23
2022-12-05T02:06:32.507Z,1.24
2022-12-05T02:09:00.862Z,1.22
2022-12-05T02:11:30.715Z,1.22
2022-12-05T02:14:11.882Z,1.24
2022-12-05T02:16:47.475Z,1.25
2022-12-05T02:19:32.756Z,1.24
2022-12-05T02:22:13.914Z,1.25
2022-12-05T02:25:02.939Z,1.24
2022-12-05T02:27:58.860Z,1.26
2022-12-05T02:30:28.761Z,1.25
2022-12-05T02:33:10.151Z,1.24
2022-12-05T02:35:43.349Z,1.21
2022-12-05T02:38:17.649Z,1.22
2022-12-05T02:40:50.956Z,1.25
2022-12-05T02:43:20.545Z,1.26
2022-12-05T02:45:52.462Z,1.22
2022-12-05T02:48:20.938Z,1.20
2022-12-05T02:50:49.432Z,1.16
2022-12-05T02:53:18.073Z,1.20
2022-12-05T02:55:46.483Z,1.20
2022-12-05T02:58:17.842Z,1.18
2022-12-05T03:00:46.691Z,1.17
2022-12-05T03:03:18.555Z,1.19
2022-12-05T03:05:50.119Z,1.20
2022-12-05T03:08:20.078Z,1.19
2022-12-05T03:10:48.470Z,1.20
2022-12-05T03:13:19.422Z,1.21
2022-12-05T03:15:49.112Z,1.22
2022-12-05T03:18:20.003Z,1.23
2022-12-05T03:20:49.384Z,1.25
2022-12-05T03:23:20.927Z,1.26
2022-12-05T03:25:53.648Z,1.26
2022-12-05T03:28:25.446Z,1.25
2022-12-05T03:30:54.749Z,1.27
2022-12-05T03:33:25.414Z,1.27
2022-12-05T03:35:58.617Z,1.27
2022-12-05T03:38:27.884Z,1.23
2022-12-05T03:40:58.054Z,1.24
2022-12-05T03:43:29.454Z,1.26
2022-12-05T03:46:04.449Z,1.26
2022-12-05T03:48:36.169Z,1.27
2022-12-05T03:51:05.018Z,1.28
2022-12-05T03:53:34.583Z,1.27
2022-12-05T03:56:05.347Z,1.29
2022-12-05T03:58:36.590Z,1.29
2022-12-05T04:01:05.473Z,1.28
2022-12-05T04:03:40.398Z,1.29
2022-12-05T04:06:13.239Z,1.30
2022-12-05T04:08:43.580Z,1.28
2022-12-05T04:11:13.996Z,1.26
2022-12-05T04:13:43.505Z,1.29
2022-12-05T04:16:31.420Z,1.31
2022-12-05T04:19:03.285Z,1.31
2022-12-05T04:21:39.763Z,1.32
2022-12-05T04:24:27.259Z,1.32
2022-12-05T04:27:01.162Z,1.32
2022-12-05T04:29:32.100Z,1.33
2022-12-05T04:32:02.422Z,1.32
2022-12-05T04:34:32.318Z,1.32
2022-12-05T04:37:02.186Z,1.32
2022-12-05T04:39:31.899Z,1.30
2022-12-05T04:42:02.760Z,1.31
2022-12-05T04:44:33.294Z,1.32
2022-12-05T04:47:03.143Z,1.32
2022-12-05T04:49:32.859Z,1.31
2022-12-05T04:52:02.459Z,1.31
2022-12-05T04:54:32.225Z,1.33
2022-12-05T04:57:03.570Z,1.33
2022-12-05T04:59:32.002Z,1.32
2022-12-05T05:02:03.388Z,1.32
2022-12-05T05:04:35.059Z,1.34
2022-12-05T05:07:07.371Z,1.35
2022-12-05T05:09:36.319Z,1.35
2022-12-05T05:12:04.881Z,1.32
2022-12-05T05:14:33.349Z,1.32
2022-12-05T05:17:01.800Z,1.32
2022-12-05T05:19:30.235Z,1.32
2022-12-05T05:22:00.476Z,1.31
2022-12-05T05:24:28.905Z,1.29
2022-12-05T05:26:57.810Z,1.30
2022-12-05T05:29:26.233Z,1.29
2022-12-05T05:31:54.624Z,1.30
2022-12-05T05:34:23.049Z,1.32
2022-12-05T05:36:53.154Z,1.29
2022-12-05T05:39:23.031Z,1.32
2022-12-05T05:41:51.341Z,1.33
2022-12-05T05:44:19.725Z,1.34
2022-12-05T05:46:48.076Z,1.34
2022-12-05T05:49:16.829Z,1.33
2022-12-05T05:51:45.150Z,1.32
2022-12-05T05:54:13.474Z,1.31
2022-12-05T05:56:43.170Z,1.30
2022-12-05T05:59:11.474Z,1.28
2022-12-05T06:01:40.113Z,1.29
2022-12-05T06:04:08.736Z,1.30
2022-12-05T06:06:37.223Z,1.32
2022-12-05T06:09:07.514Z,1.33
2022-12-05T06:11:35.916Z,1.34
2022-12-05T06:14:05.697Z,1.32
2022-12-05T06:16:34.478Z,1.38
2022-12-05T06:19:02.847Z,1.40
2022-12-05T06:21:31.138Z,1.40
2022-12-05T06:23:59.577Z,1.41
2022-12-05T06:26:27.967Z,1.41
2022-12-05T06:28:56.309Z,1.39
2022-12-05T06:31:28.452Z,1.46
2022-12-05T06:33:56.910Z,1.48
2022-12-05T06:36:25.237Z,1.61
2022-12-05T06:38:53.513Z,1.66
2022-12-05T06:41:22.007Z,1.72
2022-12-05T06:43:50.642Z,1.86
2022-12-05T06:46:19.128Z,1.93
2022-12-05T06:48:49.038Z,2.01
2022-12-05T06:51:17.858Z,2.08
2022-12-05T06:53:46.291Z,2.11
2022-12-05T06:56:16.271Z,2.17
2022-12-05T06:58:44.829Z,2.21
2022-12-05T07:01:31.320Z,2.23
2022-12-05T07:04:01.158Z,2.18
2022-12-05T07:06:29.599Z,2.22
2022-12-05T07:08:57.950Z,2.29
2022-12-05T07:11:26.581Z,2.23
2022-12-05T07:13:55.058Z,2.24
2022-12-05T07:16:23.473Z,2.26
2022-12-05T07:18:51.904Z,2.15
2022-12-05T07:21:22.451Z,2.10
2022-12-05T07:23:54.277Z,2.21
2022-12-05T07:26:23.408Z,2.29
2022-12-05T07:28:52.203Z,2.33
2022-12-05T07:31:22.776Z,2.33
2022-12-05T07:33:51.404Z,2.27
2022-12-05T07:36:22.564Z,2.27
2022-12-05T07:38:55.381Z,2.27
2022-12-05T07:41:24.842Z,2.28
2022-12-05T07:43:53.347Z,2.33
2022-12-05T07:46:21.966Z,2.35
2022-12-05T07:48:50.515Z,2.31
2022-12-05T07:51:19.261Z,2.22
2022-12-05T07:53:49.190Z,2.28
2022-12-05T07:56:18.341Z,2.29
2022-12-05T07:58:46.701Z,2.26
2022-12-05T08:01:16.493Z,2.29
2022-12-05T08:03:44.862Z,2.30
2022-12-05T08:06:14.566Z,2.28
2022-12-05T08:08:42.982Z,2.37
2022-12-05T08:11:13.629Z,2.46
2022-12-05T08:13:42.065Z,2.45
2022-12-05T08:16:12.448Z,2.33
2022-12-05T08:18:41.269Z,2.27
2022-12-05T08:21:11.035Z,2.26
2022-12-05T08:23:39.451Z,2.24
2022-12-05T08:26:10.946Z,2.25
2022-12-05T08:28:40.709Z,2.20
2022-12-05T08:31:10.770Z,2.26
2022-12-05T08:33:39.160Z,2.29
2022-12-05T08:36:09.148Z,2.32
2022-12-05T08:38:37.527Z,2.38
2022-12-05T08:41:06.353Z,2.40
2022-12-05T08:43:34.911Z,2.40
2022-12-05T08:46:05.317Z,2.35
2022-12-05T08:48:33.848Z,2.38
2022-12-05T08:51:06.334Z,2.40
2022-12-05T08:53:38.303Z,2.46
2022-12-05T08:56:10.316Z,2.45
2022-12-05T08:58:38.742Z,2.48
2022-12-05T09:01:09.487Z,2.54
2022-12-05T09:03:38.379Z,2.61
2022-12-05T09:06:08.910Z,2.59
2022-12-05T09:08:37.288Z,2.62
2022-12-05T09:11:08.735Z,2.73
2022-12-05T09:13:37.493Z,2.76
2022-12-05T09:16:10.639Z,2.79
2022-12-05T09:18:39.193Z,2.75
2022-12-05T09:21:08.451Z,2.79
2022-12-05T09:23:39.191Z,2.76
2022-12-05T09:26:08.753Z,2.79
2022-12-05T09:28:37.164Z,2.73
2022-12-05T09:31:07.382Z,2.83
2022-12-05T09:33:38.062Z,2.88
2022-12-05T09:36:07.173Z,2.88
2022-12-05T09:38:36.349Z,2.91
2022-12-05T09:41:08.615Z,2.93
2022-12-05T09:43:38.584Z,2.94
2022-12-05T09:46:10.339Z,2.98
2022-12-05T09:48:41.010Z,3.04
2022-12-05T09:51:10.227Z,3.07
2022-12-05T09:53:39.621Z,3.02
2022-12-05T09:56:14.740Z,3.10
2022-12-05T09:58:44.038Z,3.07
2022-12-05T10:01:34.787Z,3.09
2022-12-05T10:04:17.666Z,3.14
2022-12-05T10:06:48.642Z,3.15
2022-12-05T10:09:26.988Z,3.22
2022-12-05T10:11:58.648Z,3.23
2022-12-05T10:14:31.533Z,3.21
2022-12-05T10:17:00.707Z,3.23
2022-12-05T10:19:32.394Z,3.15
2022-12-05T10:22:03.073Z,3.20
2022-12-05T10:24:32.990Z,3.23
2022-12-05T10:27:02.112Z,3.25
2022-12-05T10:29:32.520Z,3.15
2022-12-05T10:32:05.590Z,3.19
2022-12-05T10:34:36.766Z,3.19
2022-12-05T10:37:11.380Z,3.22
2022-12-05T10:39:39.807Z,3.20
2022-12-05T10:42:08.593Z,3.22
2022-12-05T10:44:36.924Z,3.21
2022-12-05T10:47:05.240Z,3.23
2022-12-05T10:49:35.415Z,3.26
2022-12-05T10:52:03.809Z,3.22
2022-12-05T10:54:32.887Z,3.31
2022-12-05T10:57:01.192Z,3.27
2022-12-05T10:59:48.231Z,3.30
2022-12-05T11:02:22.971Z,3.28
2022-12-05T11:04:53.094Z,3.25
2022-12-05T11:07:31.958Z,3.24
2022-12-05T11:10:00.533Z,3.25
2022-12-05T11:12:29.311Z,3.27
2022-12-05T11:15:08.238Z,3.28
2022-12-05T11:17:37.281Z,3.29
2022-12-05T11:20:38.112Z,3.27
2022-12-05T11:23:18.732Z,3.26
2022-12-05T11:25:47.124Z,3.27
2022-12-05T11:28:41.008Z,3.24
2022-12-05T11:31:22.529Z,3.27
2022-12-05T11:34:02.624Z,3.24
2022-12-05T11:36:37.922Z,3.26
2022-12-05T11:39:06.506Z,3.27
2022-12-05T11:41:42.996Z,3.25
2022-12-05T11:44:21.373Z,3.27
2022-12-05T11:46:55.916Z,3.28
2022-12-05T11:49:36.414Z,3.29
2022-12-05T11:52:09.891Z,3.30
2022-12-05T11:55:05.707Z,3.29
2022-12-05T11:57:53.360Z,3.29
2022-12-05T12:00:24.344Z,3.31
2022-12-05T12:03:15.286Z,3.29
2022-12-05T12:05:45.663Z,3.28
2022-12-05T12:08:20.374Z,3.29
2022-12-05T12:10:52.314Z,3.25
2022-12-05T12:13:29.078Z,3.25
2022-12-05T12:16:07.948Z,3.25
2022-12-05T12:18:58.850Z,3.23
2022-12-05T12:21:35.382Z,3.26
2022-12-05T12:24:13.307Z,3.25
2022-12-05T12:26:45.864Z,3.25
2022-12-05T12:29:19.158Z,3.26
2022-12-05T12:31:55.327Z,3.28
2022-12-05T12:34:48.728Z,3.26
2022-12-05T12:37:21.553Z,3.28
2022-12-05T12:39:53.733Z,3.26
2022-12-05T12:42:26.307Z,3.28
2022-12-05T12:45:09.768Z,3.28
2022-12-05T12:47:44.226Z,3.29
2022-12-05T12:50:15.783Z,3.27
2022-12-05T12:52:54.407Z,3.30
2022-12-05T12:55:26.075Z,3.33
2022-12-05T12:58:01.313Z,3.36
2022-12-05T13:00:35.104Z,3.35
2022-12-05T13:03:05.215Z,3.34
2022-12-05T13:05:34.802Z,3.36
2022-12-05T13:08:05.638Z,3.41
2022-12-05T13:10:36.611Z,3.41
2022-12-05T13:13:05.394Z,3.45
2022-12-05T13:15:36.046Z,3.48
2022-12-05T13:18:04.995Z,3.50
2022-12-05T13:20:35.399Z,3.53
2022-12-05T13:23:07.997Z,3.48
2022-12-05T13:25:39.654Z,3.44
2022-12-05T13:28:09.562Z,3.45
2022-12-05T13:30:58.138Z,3.45
2022-12-05T13:33:27.224Z,3.43
2022-12-05T13:36:17.213Z,3.42
2022-12-05T13:39:03.540Z,3.41
2022-12-05T13:42:01.201Z,3.40
2022-12-05T13:44:33.466Z,3.33
2022-12-05T13:47:02.418Z,3.32
2022-12-05T13:49:34.017Z,3.29
2022-12-05T13:52:07.366Z,3.27
2022-12-05T13:54:35.895Z,3.24
2022-12-05T13:57:06.023Z,3.21
2022-12-05T14:00:01.587Z,3.19
2022-12-05T14:03:04.928Z,3.16
2022-12-05T14:05:54.517Z,3.16
2022-12-05T14:08:52.957Z,3.14
2022-12-05T14:11:21.308Z,3.12
2022-12-05T14:13:51.149Z,3.10
2022-12-05T14:16:46.989Z,3.10
2022-12-05T14:19:38.738Z,3.08
2022-12-05T14:22:27.881Z,3.05
2022-12-05T14:24:58.660Z,2.99
2022-12-05T14:27:32.842Z,2.97
2022-12-05T14:30:04.614Z,2.93
2022-12-05T14:32:33.827Z,2.89
2022-12-05T14:35:05.393Z,2.87
2022-12-05T14:37:34.805Z,2.85
2022-12-05T14:40:04.527Z,2.83
2022-12-05T14:42:38.814Z,2.79
2022-12-05T14:45:39.592Z,2.70
2022-12-05T14:48:28.197Z,2.61
2022-12-05T14:50:56.933Z,2.53
2022-12-05T14:53:38.253Z,2.46
2022-12-05T14:56:19.107Z,2.38
2022-12-05T14:58:53.245Z,2.25
2022-12-05T15:01:23.497Z,2.20
2022-12-05T15:04:11.362Z,2.18
2022-12-05T15:06:46.378Z,2.12
2022-12-05T15:09:36.869Z,2.06
2022-12-05T15:12:09.745Z,2.02
2022-12-05T15:14:44.736Z,1.90
2022-12-05T15:17:16.072Z,1.89
2022-12-05T15:19:47.394Z,1.82
2022-12-05T15:22:15.772Z,1.78
2022-12-05T15:24:44.373Z,1.72
2022-12-05T15:27:12.987Z,1.68
2022-12-05T15:29:41.915Z,1.64
2022-12-05T15:32:17.464Z,1.58
2022-12-05T15:34:49.042Z,1.57
2022-12-05T15:37:18.502Z,1.55
2022-12-05T15:39:54.837Z,1.48
2022-12-05T15:42:29.192Z,1.45
2022-12-05T15:45:13.328Z,1.52
2022-12-05T15:47:41.808Z,1.48
2022-12-05T15:50:15.864Z,1.39
2022-12-05T15:52:46.200Z,1.38
2022-12-05T15:55:16.991Z,1.43
2022-12-05T15:57:47.923Z,1.47
2022-12-05T16:00:17.444Z,1.42
2022-12-05T16:02:46.936Z,1.41
2022-12-05T16:05:24.471Z,1.43
2022-12-05T16:07:54.172Z,1.46
2022-12-05T16:10:29.138Z,1.48
2022-12-05T16:12:58.065Z,1.50
2022-12-05T16:15:28.096Z,1.48
2022-12-05T16:17:57.000Z,1.51
2022-12-05T16:20:32.067Z,1.52
2022-12-05T16:23:04.505Z,1.53
2022-12-05T16:25:35.004Z,1.56
2022-12-05T16:28:05.366Z,1.54
2022-12-05T16:30:33.675Z,1.52
2022-12-05T16:33:06.682Z,1.55
2022-12-05T16:35:39.974Z,1.53
2022-12-05T16:38:14.563Z,1.52
2022-12-05T16:40:53.751Z,1.55
2022-12-05T16:43:29.204Z,1.58
2022-12-05T16:45:58.734Z,1.58
2022-12-05T16:48:27.810Z,1.56
2022-12-05T16:51:17.421Z,1.58
2022-12-05T16:53:47.793Z,1.60
2022-12-05T16:56:17.189Z,1.59
2022-12-05T16:58:45.574Z,1.60
2022-12-05T17:01:17.573Z,1.58
2022-12-05T17:03:46.816Z,1.59
2022-12-05T17:06:18.413Z,1.62
2022-12-05T17:08:46.750Z,1.64
2022-12-05T17:11:16.406Z,1.62
2022-12-05T17:13:45.319Z,1.62
2022-12-05T17:16:13.700Z,1.63
2022-12-05T17:18:42.309Z,1.64
2022-12-05T17:21:12.153Z,1.66
2022-12-05T17:23:47.492Z,1.66
2022-12-05T17:26:20.470Z,1.67
2022-12-05T17:28:48.997Z,1.68
2022-12-05T17:31:18.247Z,1.71
2022-12-05T17:33:47.003Z,1.72
2022-12-05T17:36:15.496Z,1.71
2022-12-05T17:38:52.333Z,1.73
2022-12-05T17:41:23.436Z,1.75
2022-12-05T17:43:52.446Z,1.77
2022-12-05T17:46:22.417Z,1.76
2022-12-05T17:48:51.204Z,1.76
2022-12-05T17:51:20.051Z,1.74
2022-12-05T17:53:49.817Z,1.73
2022-12-05T17:56:18.317Z,1.74
2022-12-05T17:58:47.074Z,1.73
2022-12-05T18:01:16.182Z,1.73
2022-12-05T18:03:44.616Z,1.71
2022-12-05T18:06:13.359Z,1.74
2022-12-05T18:08:44.112Z,1.74
2022-12-05T18:11:15.458Z,1.75
2022-12-05T18:13:44.015Z,1.76
2022-12-05T18:16:12.544Z,1.77
2022-12-05T18:18:40.916Z,1.78
2022-12-05T18:21:10.402Z,1.77
2022-12-05T18:23:38.762Z,1.82
2022-12-05T18:26:07.395Z,1.78
2022-12-05T18:28:37.424Z,1.80
2022-12-05T18:31:09.473Z,1.81
2022-12-05T18:33:39.539Z,1.83
2022-12-05T18:36:08.894Z,1.81
2022-12-05T18:38:37.515Z,1.83
2022-12-05T18:41:06.449Z,1.84
2022-12-05T18:43:36.194Z,1.84
2022-12-05T18:46:04.956Z,1.83
2022-12-05T18:48:40.113Z,1.84
2022-12-05T18:51:11.100Z,1.85
2022-12-05T18:53:39.502Z,1.89
2022-12-05T18:56:25.462Z,1.89
2022-12-05T18:58:56.984Z,1.88
2022-12-05T19:01:25.942Z,1.89
2022-12-05T19:03:54.450Z,1.89
2022-12-05T19:06:23.544Z,1.88
2022-12-05T19:08:54.696Z,1.88
2022-12-05T19:11:23.173Z,1.87
2022-12-05T19:13:52.051Z,1.86
2022-12-05T19:16:22.157Z,1.88
2022-12-05T19:18:54.162Z,1.86
2022-12-05T19:21:25.592Z,1.86
2022-12-05T19:23:56.279Z,1.87
2022-12-05T19:26:26.274Z,1.86
2022-12-05T19:28:54.636Z,1.85
2022-12-05T19:31:25.607Z,1.85
2022-12-05T19:33:54.652Z,1.81
2022-12-05T19:36:24.258Z,1.80
2022-12-05T19:38:53.824Z,1.82
2022-12-05T19:41:23.254Z,1.81
2022-12-05T19:43:52.065Z,1.76
2022-12-05T19:46:21.510Z,1.76
2022-12-05T19:48:51.678Z,1.78
2022-12-05T19:51:20.076Z,1.79
2022-12-05T19:53:48.905Z,1.79
2022-12-05T19:56:18.437Z,1.74
2022-12-05T19:58:46.922Z,1.73
2022-12-05T20:01:16.761Z,1.74
2022-12-05T20:03:47.912Z,1.73
2022-12-05T20:06:18.079Z,1.75
2022-12-05T20:08:47.300Z,1.79
2022-12-05T20:11:17.203Z,1.81
2022-12-05T20:13:46.939Z,1.81
2022-12-05T20:16:16.711Z,1.84
2022-12-05T20:18:45.057Z,1.85
2022-12-05T20:21:14.304Z,1.86
2022-12-05T20:23:44.323Z,1.86
2022-12-05T20:26:13.519Z,1.84
2022-12-05T20:28:41.834Z,1.80
2022-12-05T20:31:11.194Z,1.81
2022-12-05T20:33:39.647Z,1.80
2022-12-05T20:36:09.625Z,1.84
2022-12-05T20:38:38.009Z,1.85
2022-12-05T20:41:08.307Z,1.88
2022-12-05T20:43:36.683Z,1.89
2022-12-05T20:46:05.344Z,1.88
2022-12-05T20:48:33.706Z,1.90
2022-12-05T20:51:05.343Z,1.93
2022-12-05T20:53:34.391Z,1.93
2022-12-05T20:56:08.512Z,1.94
2022-12-05T20:58:36.964Z,1.96
2022-12-05T21:01:07.013Z,1.96
2022-12-05T21:03:35.486Z,1.96
2022-12-05T21:06:08.409Z,1.99
2022-12-05T21:08:36.831Z,2.00
2022-12-05T21:11:05.133Z,1.99
2022-12-05T21:13:34.843Z,2.00
2022-12-05T21:16:04.362Z,2.00
2022-12-05T21:18:33.077Z,2.03
2022-12-05T21:21:02.174Z,2.02
2022-12-05T21:23:30.473Z,2.04
2022-12-05T21:26:02.213Z,2.04
2022-12-05T21:28:30.658Z,2.03
2022-12-05T21:31:07.934Z,2.03
2022-12-05T21:33:36.645Z,2.04
2022-12-05T21:36:05.466Z,2.03
2022-12-05T21:38:33.877Z,2.05
2022-12-05T21:41:03.150Z,2.07
2022-12-05T21:43:31.426Z,2.07
2022-12-05T21:45:59.835Z,2.05
2022-12-05T21:48:29.590Z,2.04
2022-12-05T21:50:58.065Z,2.05
2022-12-05T21:53:26.430Z,2.02
2022-12-05T21:56:00.792Z,2.02
2022-12-05T21:58:29.194Z,2.01
2022-12-05T22:00:57.872Z,2.00
2022-12-05T22:03:26.182Z,2.01
2022-12-05T22:06:02.695Z,2.02
2022-12-05T22:08:31.146Z,2.02
2022-12-05T22:11:05.527Z,2.00
2022-12-05T22:13:33.829Z,2.02
2022-12-05T22:16:02.232Z,2.01
2022-12-05T22:18:30.658Z,2.00
2022-12-05T22:20:59.027Z,1.98
2022-12-05T22:23:29.062Z,2.00
2022-12-05T22:26:00.561Z,2.02
2022-12-05T22:28:29.275Z,2.02
2022-12-05T22:30:58.287Z,2.03
2022-12-05T22:33:26.773Z,2.00
2022-12-05T22:35:56.678Z,1.99
2022-12-05T22:38:25.763Z,2.02
2022-12-05T22:40:58.595Z,2.03
2022-12-05T22:43:27.390Z,2.05
2022-12-05T22:45:55.718Z,2.05
2022-12-05T22:48:24.082Z,2.05
2022-12-05T22:50:55.084Z,2.06
2022-12-05T22:53:24.103Z,2.05
2022-12-05T22:55:52.914Z,2.06
2022-12-05T22:58:22.629Z,2.06
2022-12-05T23:00:50.947Z,2.06
2022-12-05T23:03:19.357Z,2.07
2022-12-05T23:05:47.713Z,2.04
2022-12-05T23:08:16.079Z,2.05
2022-12-05T23:10:44.753Z,2.02
2022-12-05T23:13:13.062Z,2.02
2022-12-05T23:15:42.743Z,2.01
2022-12-05T23:18:11.019Z,2.02
2022-12-05T23:20:39.454Z,2.02
2022-12-05T23:23:08.085Z,2.02
2022-12-05T23:25:36.361Z,2.03
2022-12-05T23:28:04.811Z,2.06
2022-12-05T23:30:33.206Z,2.07
2022-12-05T23:33:02.938Z,2.08
2022-12-05T23:35:31.358Z,2.07
2022-12-05T23:37:59.888Z,2.06
2022-12-05T23:40:28.309Z,2.05
2022-12-05T23:42:56.575Z,2.04
2022-12-05T23:45:24.837Z,2.03
2022-12-05T23:47:53.150Z,2.01
2022-12-05T23:50:23.268Z,1.98
2022-12-05T23:52:51.670Z,1.99
2022-12-05T23:55:19.965Z,2.03
2022-12-05T23:57:48.741Z,2.04
